createdAt,value
2018-02-18T00:00:41.582Z,22.4
2018-02-18T00:01:41.479Z,22.4
2018-02-18T00:02:41.416Z,22.5
2018-02-18T00:03:41.351Z,22.5
2018-02-18T00:04:41.214Z,22.5
2018-02-18T00:05:41.234Z,22.6
2018-02-18T00:06:41.114Z,22.6
2018-02-18T00:07:41.150Z,22.6
2018-02-18T00:08:41.000Z,22.6
2018-02-18T00:09:40.926Z,22.6
2018-02-18T00:10:40.827Z,22.6
2018-02-18T00:11:40.871Z,22.6
2018-02-18T00:12:40.724Z,22.6
2018-02-18T00:13:40.682Z,22.7
2018-02-18T00:14:40.703Z,22.6
2018-02-18T00:15:40.473Z,22.7
2018-02-18T00:16:40.714Z,22.7
2018-02-18T00:17:40.381Z,22.8
2018-02-18T00:18:40.258Z,22.8
2018-02-18T00:19:40.215Z,23
2018-02-18T00:20:40.142Z,23
2018-02-18T00:21:40.072Z,22.9
2018-02-18T00:22:40.006Z,23
2018-02-18T00:23:39.938Z,23.1
2018-02-18T00:24:39.864Z,23.1
2018-02-18T00:25:39.807Z,23
2018-02-18T00:26:39.764Z,22.9
2018-02-18T00:27:39.685Z,22.9
2018-02-18T00:28:39.623Z,22.9
2018-02-18T00:29:39.490Z,23
2018-02-18T00:30:39.744Z,22.8
2018-02-18T00:31:39.386Z,22.6
2018-02-18T00:32:39.318Z,22.4
2018-02-18T00:33:39.215Z,22.4
2018-02-18T00:34:39.213Z,22.3
2018-02-18T00:35:39.171Z,22.3
2018-02-18T00:36:39.069Z,22.3
2018-02-18T00:37:38.980Z,22.2
2018-02-18T00:38:38.909Z,22.2
2018-02-18T00:39:39.127Z,22.3
2018-02-18T00:40:38.766Z,22.3
2018-02-18T00:41:38.800Z,22.3
2018-02-18T00:42:38.628Z,22.3
2018-02-18T00:43:38.553Z,22.3
2018-02-18T00:44:38.463Z,22.3
2018-02-18T00:45:38.452Z,22.4
2018-02-18T00:46:38.320Z,22.4
2018-02-18T00:47:38.295Z,22.4
2018-02-18T00:48:38.215Z,22.4
2018-02-18T00:49:38.161Z,22.4
2018-02-18T00:50:38.096Z,22.5
2018-02-18T00:51:37.973Z,22.5
2018-02-18T00:52:37.968Z,22.6
2018-02-18T00:53:37.878Z,22.6
2018-02-18T00:54:37.799Z,22.6
2018-02-18T00:55:37.787Z,22.6
2018-02-18T00:56:37.632Z,22.6
2018-02-18T00:57:37.914Z,22.6
2018-02-18T00:58:37.523Z,22.6
2018-02-18T00:59:37.752Z,22.6
2018-02-18T01:00:37.382Z,22.7
2018-02-18T01:01:37.314Z,22.8
2018-02-18T01:02:37.281Z,22.9
2018-02-18T01:03:37.180Z,23
2018-02-18T01:04:37.168Z,22.9
2018-02-18T01:05:37.036Z,22.9
2018-02-18T01:06:36.972Z,22.9
2018-02-18T01:07:36.933Z,23
2018-02-18T01:08:36.945Z,23
2018-02-18T01:09:37.051Z,22.8
2018-02-18T01:10:36.987Z,22.7
2018-02-18T01:11:36.624Z,22.6
2018-02-18T01:12:36.589Z,22.5
2018-02-18T01:13:36.545Z,22.4
2018-02-18T01:14:36.474Z,22.4
2018-02-18T01:15:36.642Z,22.4
2018-02-18T01:16:36.580Z,22.4
2018-02-18T01:17:36.252Z,22.4
2018-02-18T01:18:36.111Z,22.4
2018-02-18T01:19:36.100Z,22.4
2018-02-18T01:20:36.051Z,22.4
2018-02-18T01:21:35.907Z,22.4
2018-02-18T01:22:35.948Z,22.4
2018-02-18T01:23:35.810Z,22.4
2018-02-18T01:24:35.727Z,22.4
2018-02-18T01:25:35.948Z,22.5
2018-02-18T01:26:35.589Z,22.5
2018-02-18T01:27:35.528Z,22.5
2018-02-18T01:28:35.487Z,22.6
2018-02-18T01:29:35.361Z,22.6
2018-02-18T01:30:35.606Z,22.6
2018-02-18T01:31:35.255Z,22.6
2018-02-18T01:32:35.236Z,22.6
2018-02-18T01:33:35.109Z,22.6
2018-02-18T01:34:35.188Z,22.6
2018-02-18T01:35:34.956Z,22.6
2018-02-18T01:36:34.907Z,22.7
2018-02-18T01:37:34.863Z,22.7
2018-02-18T01:38:34.740Z,22.7
2018-02-18T01:39:34.726Z,22.7
2018-02-18T01:40:34.603Z,22.8
2018-02-18T01:41:34.852Z,22.9
2018-02-18T01:42:34.489Z,23
2018-02-18T01:43:34.415Z,22.9
2018-02-18T01:44:34.381Z,22.9
2018-02-18T01:45:34.248Z,22.9
2018-02-18T01:46:34.243Z,23
2018-02-18T01:47:34.111Z,23
2018-02-18T01:48:34.071Z,22.9
2018-02-18T01:49:34.057Z,22.8
2018-02-18T01:50:33.966Z,22.6
2018-02-18T01:51:33.857Z,22.5
2018-02-18T01:52:33.913Z,22.4
2018-02-18T01:53:33.728Z,22.4
2018-02-18T01:54:33.662Z,22.4
2018-02-18T01:55:33.631Z,22.4
2018-02-18T01:56:33.487Z,22.4
2018-02-18T01:57:33.420Z,22.4
2018-02-18T01:58:33.471Z,22.4
2018-02-18T01:59:33.313Z,22.4
2018-02-18T02:00:33.253Z,22.4
2018-02-18T02:01:33.174Z,22.4
2018-02-18T02:02:33.083Z,22.4
2018-02-18T02:03:33.077Z,22.4
2018-02-18T02:04:33.082Z,22.5
2018-02-18T02:05:32.897Z,22.5
2018-02-18T02:06:32.888Z,22.5
2018-02-18T02:07:32.767Z,22.6
2018-02-18T02:08:32.724Z,22.6
2018-02-18T02:09:32.920Z,22.6
2018-02-18T02:10:32.552Z,22.6
2018-02-18T02:11:32.518Z,22.6
2018-02-18T02:12:32.475Z,22.6
2018-02-18T02:13:32.352Z,22.6
2018-02-18T02:14:32.288Z,22.6
2018-02-18T02:15:32.210Z,22.6
2018-02-18T02:16:32.222Z,22.6
2018-02-18T02:17:32.136Z,22.6
2018-02-18T02:18:32.294Z,22.6
2018-02-18T02:19:31.935Z,22.7
2018-02-18T02:20:31.895Z,22.8
2018-02-18T02:21:31.765Z,22.9
2018-02-18T02:22:31.873Z,22.9
2018-02-18T02:23:31.645Z,23.1
2018-02-18T02:24:31.591Z,23.2
2018-02-18T02:25:31.534Z,23.3
2018-02-18T02:26:31.454Z,23.1
2018-02-18T02:27:31.350Z,22.9
2018-02-18T02:28:31.347Z,22.8
2018-02-18T02:29:31.216Z,22.6
2018-02-18T02:30:31.213Z,22.6
2018-02-18T02:31:31.111Z,22.5
2018-02-18T02:32:31.007Z,22.5
2018-02-18T02:33:31.120Z,22.5
2018-02-18T02:34:30.905Z,22.5
2018-02-18T02:35:30.884Z,22.6
2018-02-18T02:36:30.764Z,22.6
2018-02-18T02:37:30.690Z,22.6
2018-02-18T02:38:30.605Z,22.8
2018-02-18T02:39:30.672Z,22.9
2018-02-18T02:40:30.528Z,23
2018-02-18T02:41:30.708Z,22.9
2018-02-18T02:42:30.350Z,22.9
2018-02-18T02:43:30.278Z,23
2018-02-18T02:44:30.222Z,23.1
2018-02-18T02:45:30.113Z,23.1
2018-02-18T02:46:30.218Z,22.9
2018-02-18T02:47:30.003Z,22.8
2018-02-18T02:48:29.991Z,22.6
2018-02-18T02:49:29.901Z,22.6
2018-02-18T02:50:29.762Z,22.5
2018-02-18T02:51:29.874Z,22.4
2018-02-18T02:52:29.972Z,22.4
2018-02-18T02:53:29.889Z,22.4
2018-02-18T02:54:29.519Z,22.4
2018-02-18T02:55:29.474Z,22.4
2018-02-18T02:56:29.349Z,22.4
2018-02-18T02:57:29.344Z,22.4
2018-02-18T02:58:29.497Z,22.4
2018-02-18T02:59:29.169Z,22.4
2018-02-18T03:00:29.116Z,22.4
2018-02-18T03:01:29.185Z,22.4
2018-02-18T03:02:28.942Z,22.5
2018-02-18T03:03:28.899Z,22.6
2018-02-18T03:04:28.937Z,22.6
2018-02-18T03:05:28.761Z,22.6
2018-02-18T03:06:29.009Z,22.6
2018-02-18T03:07:28.589Z,22.6
2018-02-18T03:08:28.556Z,22.6
2018-02-18T03:09:28.482Z,22.6
2018-02-18T03:10:28.383Z,22.7
2018-02-18T03:11:28.351Z,22.8
2018-02-18T03:12:28.313Z,22.9
2018-02-18T03:13:28.207Z,22.9
2018-02-18T03:14:28.136Z,22.9
2018-02-18T03:15:28.040Z,22.9
2018-02-18T03:16:28.037Z,22.9
2018-02-18T03:17:27.933Z,23.1
2018-02-18T03:18:27.965Z,23.1
2018-02-18T03:19:27.797Z,22.9
2018-02-18T03:20:27.974Z,22.8
2018-02-18T03:21:27.686Z,22.9
2018-02-18T03:22:27.626Z,22.9
2018-02-18T03:23:27.767Z,22.9
2018-02-18T03:24:27.448Z,22.7
2018-02-18T03:25:27.380Z,22.6
2018-02-18T03:26:27.598Z,22.4
2018-02-18T03:27:27.556Z,22.3
2018-02-18T03:28:27.146Z,22.3
2018-02-18T03:29:27.100Z,22.2
2018-02-18T03:30:27.333Z,22.1
2018-02-18T03:31:26.996Z,22.2
2018-02-18T03:32:26.957Z,22.2
2018-02-18T03:33:26.861Z,22.2
2018-02-18T03:34:26.729Z,22.2
2018-02-18T03:35:26.687Z,22.3
2018-02-18T03:36:26.732Z,22.3
2018-02-18T03:37:26.603Z,22.3
2018-02-18T03:38:26.802Z,22.3
2018-02-18T03:39:26.385Z,22.4
2018-02-18T03:40:26.375Z,22.4
2018-02-18T03:41:26.244Z,22.4
2018-02-18T03:42:26.204Z,22.5
2018-02-18T03:43:26.272Z,22.5
2018-02-18T03:44:26.330Z,22.6
2018-02-18T03:45:25.997Z,22.6
2018-02-18T03:46:25.932Z,22.6
2018-02-18T03:47:25.857Z,22.6
2018-02-18T03:48:25.798Z,22.6
2018-02-18T03:49:25.755Z,22.6
2018-02-18T03:50:25.620Z,22.6
2018-02-18T03:51:25.597Z,22.6
2018-02-18T03:52:25.524Z,22.6
2018-02-18T03:53:25.443Z,22.6
2018-02-18T03:54:25.490Z,22.6
2018-02-18T03:55:25.309Z,22.7
2018-02-18T03:56:25.212Z,22.8
2018-02-18T03:57:25.492Z,22.9
2018-02-18T03:58:25.219Z,22.9
2018-02-18T03:59:25.009Z,22.9
2018-02-18T04:00:24.994Z,22.9
2018-02-18T04:01:24.861Z,22.9
2018-02-18T04:02:24.862Z,23.1
2018-02-18T04:03:24.754Z,23
2018-02-18T04:04:24.696Z,22.9
2018-02-18T04:05:24.614Z,22.7
2018-02-18T04:06:24.548Z,22.6
2018-02-18T04:07:24.772Z,22.5
2018-02-18T04:08:24.440Z,22.5
2018-02-18T04:09:24.396Z,22.4
2018-02-18T04:10:24.376Z,22.4
2018-02-18T04:11:24.312Z,22.4
2018-02-18T04:12:24.167Z,22.4
2018-02-18T04:13:24.035Z,22.4
2018-02-18T04:14:23.998Z,22.4
2018-02-18T04:15:23.940Z,22.4
2018-02-18T04:16:23.876Z,22.4
2018-02-18T04:17:23.875Z,22.5
2018-02-18T04:18:23.738Z,22.4
2018-02-18T04:19:23.626Z,22.5
2018-02-18T04:20:23.734Z,22.5
2018-02-18T04:21:23.619Z,22.6
2018-02-18T04:22:23.604Z,22.6
2018-02-18T04:23:23.373Z,22.6
2018-02-18T04:24:23.363Z,22.6
2018-02-18T04:25:23.267Z,22.6
2018-02-18T04:26:23.166Z,22.6
2018-02-18T04:27:23.255Z,22.8
2018-02-18T04:28:23.004Z,22.8
2018-02-18T04:29:22.991Z,22.9
2018-02-18T04:30:22.864Z,22.9
2018-02-18T04:31:22.844Z,22.8
2018-02-18T04:32:22.749Z,22.9
2018-02-18T04:33:22.736Z,22.9
2018-02-18T04:34:22.612Z,23
2018-02-18T04:35:22.515Z,22.9
2018-02-18T04:36:22.508Z,22.8
2018-02-18T04:37:22.375Z,22.6
2018-02-18T04:38:22.378Z,22.6
2018-02-18T04:39:22.376Z,22.4
2018-02-18T04:40:22.261Z,22.4
2018-02-18T04:41:22.277Z,22.4
2018-02-18T04:42:22.069Z,22.4
2018-02-18T04:43:22.288Z,22.4
2018-02-18T04:44:21.926Z,22.4
2018-02-18T04:45:21.853Z,22.4
2018-02-18T04:46:21.842Z,22.4
2018-02-18T04:47:22.056Z,22.4
2018-02-18T04:48:21.620Z,22.4
2018-02-18T04:49:21.579Z,22.4
2018-02-18T04:50:21.518Z,22.5
2018-02-18T04:51:21.438Z,22.4
2018-02-18T04:52:21.371Z,22.4
2018-02-18T04:53:21.337Z,22.5
2018-02-18T04:54:21.249Z,22.5
2018-02-18T04:55:21.162Z,22.6
2018-02-18T04:56:21.128Z,22.6
2018-02-18T04:57:21.004Z,22.6
2018-02-18T04:58:20.987Z,22.6
2018-02-18T04:59:20.858Z,22.6
2018-02-18T05:00:20.820Z,22.6
2018-02-18T05:01:20.752Z,22.6
2018-02-18T05:02:20.648Z,22.6
2018-02-18T05:03:20.741Z,22.6
2018-02-18T05:04:20.538Z,22.6
2018-02-18T05:05:20.488Z,22.6
2018-02-18T05:06:20.510Z,22.6
2018-02-18T05:07:20.301Z,22.6
2018-02-18T05:08:20.638Z,22.6
2018-02-18T05:09:20.202Z,22.6
2018-02-18T05:10:20.286Z,22.6
2018-02-18T05:11:20.111Z,22.7
2018-02-18T05:12:19.957Z,22.8
2018-02-18T05:13:20.073Z,22.9
2018-02-18T05:14:19.958Z,23.1
2018-02-18T05:15:19.778Z,23.1
2018-02-18T05:16:19.712Z,23
2018-02-18T05:17:19.644Z,23.1
2018-02-18T05:18:19.656Z,23.3
2018-02-18T05:19:19.512Z,23.3
2018-02-18T05:20:19.409Z,23.2
2018-02-18T05:21:19.657Z,23
2018-02-18T05:22:19.297Z,23.1
2018-02-18T05:23:19.260Z,23.1
2018-02-18T05:24:19.129Z,23.1
2018-02-18T05:25:19.199Z,22.9
2018-02-18T05:26:19.019Z,22.7
2018-02-18T05:27:19.108Z,22.5
2018-02-18T05:28:18.913Z,22.4
2018-02-18T05:29:18.782Z,22.3
2018-02-18T05:30:18.776Z,22.3
2018-02-18T05:31:18.738Z,22.3
2018-02-18T05:32:18.605Z,22.3
2018-02-18T05:33:18.555Z,22.2
2018-02-18T05:34:18.466Z,22.3
2018-02-18T05:35:18.417Z,22.3
2018-02-18T05:36:18.302Z,22.4
2018-02-18T05:37:18.264Z,22.4
2018-02-18T05:38:18.194Z,22.6
2018-02-18T05:39:18.156Z,22.7
2018-02-18T05:40:18.072Z,22.8
2018-02-18T05:41:18.016Z,22.9
2018-02-18T05:42:17.885Z,22.8
2018-02-18T05:43:18.135Z,22.8
2018-02-18T05:44:17.786Z,22.9
2018-02-18T05:45:17.708Z,22.9
2018-02-18T05:46:17.616Z,23
2018-02-18T05:47:17.899Z,22.9
2018-02-18T05:48:17.471Z,22.8
2018-02-18T05:49:17.464Z,22.6
2018-02-18T05:50:17.430Z,22.6
2018-02-18T05:51:17.564Z,22.5
2018-02-18T05:52:17.262Z,22.4
2018-02-18T05:53:17.449Z,22.4
2018-02-18T05:54:17.202Z,22.4
2018-02-18T05:55:17.022Z,22.4
2018-02-18T05:56:16.952Z,22.4
2018-02-18T05:57:16.848Z,22.4
2018-02-18T05:58:16.844Z,22.4
2018-02-18T05:59:16.742Z,22.4
2018-02-18T06:00:16.713Z,22.5
2018-02-18T06:01:16.574Z,22.5
2018-02-18T06:02:16.576Z,22.6
2018-02-18T06:03:16.437Z,22.6
2018-02-18T06:04:16.398Z,22.6
2018-02-18T06:05:16.333Z,22.7
2018-02-18T06:06:16.584Z,22.8
2018-02-18T06:07:16.179Z,22.9
2018-02-18T06:08:16.229Z,22.9
2018-02-18T06:09:16.165Z,22.9
2018-02-18T06:10:15.985Z,22.9
2018-02-18T06:11:15.946Z,23
2018-02-18T06:12:15.823Z,23.1
2018-02-18T06:13:15.836Z,23.1
2018-02-18T06:14:15.746Z,22.8
2018-02-18T06:15:15.640Z,22.8
2018-02-18T06:16:15.867Z,22.7
2018-02-18T06:17:15.498Z,22.5
2018-02-18T06:18:15.402Z,22.5
2018-02-18T06:19:15.394Z,22.4
2018-02-18T06:20:15.306Z,22.5
2018-02-18T06:21:15.273Z,22.5
2018-02-18T06:22:15.125Z,22.5
2018-02-18T06:23:15.143Z,22.6
2018-02-18T06:24:15.054Z,22.6
2018-02-18T06:25:14.965Z,22.8
2018-02-18T06:26:14.879Z,22.8
2018-02-18T06:27:14.822Z,22.9
2018-02-18T06:28:14.739Z,22.9
2018-02-18T06:29:14.984Z,22.8
2018-02-18T06:30:14.751Z,22.9
2018-02-18T06:31:14.546Z,22.9
2018-02-18T06:32:14.576Z,23
2018-02-18T06:33:14.404Z,22.8
2018-02-18T06:34:14.388Z,22.7
2018-02-18T06:35:14.289Z,22.6
2018-02-18T06:36:14.190Z,22.4
2018-02-18T06:37:14.125Z,22.4
2018-02-18T06:38:14.054Z,22.3
2018-02-18T06:39:14.131Z,22.3
2018-02-18T06:40:13.954Z,22.3
2018-02-18T06:41:13.874Z,22.3
2018-02-18T06:42:13.742Z,22.3
2018-02-18T06:43:13.703Z,22.3
2018-02-18T06:44:13.637Z,22.4
2018-02-18T06:45:13.565Z,22.4
2018-02-18T06:46:13.499Z,22.4
2018-02-18T06:47:13.425Z,22.1
2018-02-18T06:48:13.357Z,21.3
2018-02-18T06:49:13.403Z,20.8
2018-02-18T06:50:13.257Z,20.9
2018-02-18T06:51:13.120Z,21.1
2018-02-18T06:52:13.411Z,21.3
2018-02-18T06:53:12.988Z,21.6
2018-02-18T06:54:13.054Z,21.9
2018-02-18T06:55:12.858Z,22
2018-02-18T06:56:12.957Z,22.1
2018-02-18T06:57:12.739Z,22.3
2018-02-18T06:58:12.813Z,22.4
2018-02-18T06:59:12.601Z,22.6
2018-02-18T07:00:12.817Z,22.7
2018-02-18T07:01:12.430Z,22.9
2018-02-18T07:02:12.473Z,22.9
2018-02-18T07:03:12.323Z,23.1
2018-02-18T07:04:12.513Z,23.2
2018-02-18T07:05:12.215Z,23.3
2018-02-18T07:06:12.083Z,23.4
2018-02-18T07:07:12.078Z,23.4
2018-02-18T07:08:11.994Z,23.4
2018-02-18T07:09:11.907Z,23.5
2018-02-18T07:10:11.843Z,23.6
2018-02-18T07:11:11.795Z,23.6
2018-02-18T07:12:11.953Z,23.6
2018-02-18T07:13:11.666Z,23.6
2018-02-18T07:14:11.536Z,23.6
2018-02-18T07:15:11.492Z,23.6
2018-02-18T07:16:11.480Z,23.6
2018-02-18T07:17:11.398Z,23.6
2018-02-18T07:18:11.256Z,23.6
2018-02-18T07:19:11.221Z,23.6
2018-02-18T07:20:11.256Z,23.7
2018-02-18T07:21:11.081Z,23.7
2018-02-18T07:22:11.042Z,23.7
2018-02-18T07:23:10.913Z,23.7
2018-02-18T07:24:10.903Z,23.8
2018-02-18T07:25:10.915Z,23.8
2018-02-18T07:26:10.839Z,23.8
2018-02-18T07:27:10.684Z,23.8
2018-02-18T07:28:10.598Z,23.8
2018-02-18T07:29:10.561Z,23.8
2018-02-18T07:30:10.428Z,23.8
2018-02-18T07:31:10.679Z,23.8
2018-02-18T07:32:10.319Z,23.8
2018-02-18T07:33:10.288Z,23.9
2018-02-18T07:34:10.151Z,23.9
2018-02-18T07:35:10.118Z,23.9
2018-02-18T07:36:10.041Z,24.1
2018-02-18T07:37:09.986Z,24.1
2018-02-18T07:38:09.908Z,24.1
2018-02-18T07:39:09.847Z,24.2
2018-02-18T07:40:09.743Z,24.2
2018-02-18T07:41:09.846Z,24.3
2018-02-18T07:42:09.600Z,24.3
2018-02-18T07:43:09.745Z,24.3
2018-02-18T07:44:09.492Z,24.3
2018-02-18T07:45:09.684Z,24.3
2018-02-18T07:46:09.383Z,24.3
2018-02-18T07:47:09.291Z,24.3
2018-02-18T07:48:09.263Z,24.3
2018-02-18T07:49:09.257Z,24.3
2018-02-18T07:50:09.075Z,24.3
2018-02-18T07:51:09.295Z,24.3
2018-02-18T07:52:08.939Z,24.3
2018-02-18T07:53:08.869Z,24.3
2018-02-18T07:54:08.855Z,24.2
2018-02-18T07:55:08.806Z,24.2
2018-02-18T07:56:08.630Z,24.2
2018-02-18T07:57:08.741Z,24.2
2018-02-18T07:58:08.637Z,24.2
2018-02-18T07:59:08.482Z,24.2
2018-02-18T08:00:08.423Z,24.2
2018-02-18T08:01:08.318Z,24.2
2018-02-18T08:02:08.267Z,24.2
2018-02-18T08:03:08.181Z,24.2
2018-02-18T08:04:08.106Z,24.3
2018-02-18T08:05:08.010Z,24.2
2018-02-18T08:06:08.004Z,24.2
2018-02-18T08:07:07.898Z,24.2
2018-02-18T08:08:07.946Z,24.2
2018-02-18T08:09:07.767Z,24.2
2018-02-18T08:10:07.984Z,24.3
2018-02-18T08:11:07.739Z,24.2
2018-02-18T08:12:07.592Z,24.2
2018-02-18T08:13:07.560Z,24.2
2018-02-18T08:14:07.588Z,24.2
2018-02-18T08:15:07.524Z,24.2
2018-02-18T08:16:07.247Z,24.2
2018-02-18T08:17:07.243Z,24.1
2018-02-18T08:18:07.116Z,24
2018-02-18T08:19:07.073Z,24
2018-02-18T08:20:07.010Z,24
2018-02-18T08:21:06.934Z,23.9
2018-02-18T08:22:06.989Z,23.9
2018-02-18T08:23:06.799Z,23.9
2018-02-18T08:24:06.761Z,23.9
2018-02-18T08:25:06.629Z,23.9
2018-02-18T08:26:06.593Z,23.9
2018-02-18T08:27:06.526Z,23.9
2018-02-18T08:28:06.486Z,23.8
2018-02-18T08:29:06.442Z,23.8
2018-02-18T08:30:06.315Z,23.8
2018-02-18T08:31:06.360Z,23.8
2018-02-18T08:32:06.179Z,23.8
2018-02-18T08:33:06.312Z,23.8
2018-02-18T08:34:06.012Z,23.8
2018-02-18T08:35:06.042Z,23.8
2018-02-18T08:36:06.057Z,23.8
2018-02-18T08:37:05.850Z,23.8
2018-02-18T08:38:05.762Z,23.7
2018-02-18T08:39:05.708Z,23.6
2018-02-18T08:40:05.596Z,23.6
2018-02-18T08:41:05.596Z,23.6
2018-02-18T08:42:05.494Z,23.6
2018-02-18T08:43:05.420Z,23.6
2018-02-18T08:44:05.413Z,23.5
2018-02-18T08:45:05.324Z,23.6
2018-02-18T08:46:05.190Z,23.5
2018-02-18T08:47:05.278Z,23.6
2018-02-18T08:48:05.078Z,23.5
2018-02-18T08:49:05.044Z,23.5
2018-02-18T08:50:04.911Z,23.5
2018-02-18T08:51:04.874Z,23.5
2018-02-18T08:52:04.804Z,23.6
2018-02-18T08:53:04.738Z,23.5
2018-02-18T08:54:04.664Z,23.5
2018-02-18T08:55:04.590Z,23.5
2018-02-18T08:56:04.530Z,23.5
2018-02-18T08:57:04.462Z,23.5
2018-02-18T08:58:04.424Z,23.4
2018-02-18T08:59:04.288Z,23.4
2018-02-18T09:00:04.341Z,23.4
2018-02-18T09:01:04.239Z,23.4
2018-02-18T09:02:04.110Z,23.4
2018-02-18T09:03:04.046Z,23.3
2018-02-18T09:04:03.995Z,23.3
2018-02-18T09:05:04.209Z,23.3
2018-02-18T09:06:03.993Z,23.3
2018-02-18T09:07:03.741Z,23.3
2018-02-18T09:08:03.733Z,23.3
2018-02-18T09:09:03.631Z,23.3
2018-02-18T09:10:03.660Z,23.3
2018-02-18T09:11:03.498Z,23.3
2018-02-18T09:12:03.441Z,23.2
2018-02-18T09:13:03.355Z,23.1
2018-02-18T09:14:03.300Z,23.1
2018-02-18T09:15:03.324Z,23.1
2018-02-18T09:16:03.446Z,23.1
2018-02-18T09:17:03.121Z,23.1
2018-02-18T09:18:02.987Z,23.1
2018-02-18T09:19:02.975Z,23.1
2018-02-18T09:20:02.880Z,23.1
2018-02-18T09:21:02.809Z,23.1
2018-02-18T09:22:02.744Z,23.1
2018-02-18T09:23:02.639Z,23.1
2018-02-18T09:24:02.632Z,23.1
2018-02-18T09:25:02.832Z,23.1
2018-02-18T09:26:02.462Z,23.1
2018-02-18T09:27:02.398Z,23.1
2018-02-18T09:28:02.401Z,23.1
2018-02-18T09:29:02.292Z,23.1
2018-02-18T09:30:02.192Z,23.1
2018-02-18T09:31:02.413Z,23.1
2018-02-18T09:32:02.354Z,23.1
2018-02-18T09:33:02.328Z,23.1
2018-02-18T09:34:01.948Z,23.1
2018-02-18T09:35:01.865Z,23.1
2018-02-18T09:36:01.752Z,23.1
2018-02-18T09:37:01.717Z,23
2018-02-18T09:38:01.990Z,23
2018-02-18T09:39:01.722Z,23.1
2018-02-18T09:40:01.472Z,23.1
2018-02-18T09:41:01.437Z,23
2018-02-18T09:42:01.475Z,22.9
2018-02-18T09:43:01.302Z,22.9
2018-02-18T09:44:01.260Z,22.9
2018-02-18T09:45:01.128Z,22.9
2018-02-18T09:46:01.090Z,22.9
2018-02-18T09:47:01.128Z,22.8
2018-02-18T09:48:00.933Z,22.8
2018-02-18T09:49:01.031Z,22.9
2018-02-18T09:50:00.836Z,22.9
2018-02-18T09:51:00.888Z,22.8
2018-02-18T09:52:00.674Z,22.8
2018-02-18T09:53:00.674Z,22.7
2018-02-18T09:54:00.877Z,22.8
2018-02-18T09:55:00.580Z,22.8
2018-02-18T09:56:00.702Z,22.9
2018-02-18T09:57:00.335Z,22.9
2018-02-18T09:58:00.554Z,22.9
2018-02-18T09:59:00.250Z,23
2018-02-18T10:00:00.161Z,23.1
2018-02-18T10:01:00.121Z,23.2
2018-02-18T10:02:00.000Z,23.2
2018-02-18T10:03:00.028Z,23.1
2018-02-18T10:03:59.846Z,23.1
2018-02-18T10:04:59.784Z,23.2
2018-02-18T10:05:59.747Z,23.2
2018-02-18T10:06:59.632Z,23.1
2018-02-18T10:07:59.580Z,23
2018-02-18T10:08:59.549Z,23
2018-02-18T10:09:59.688Z,23
2018-02-18T10:10:59.400Z,23
2018-02-18T10:11:59.271Z,22.9
2018-02-18T10:12:59.229Z,22.9
2018-02-18T10:13:59.163Z,22.9
2018-02-18T10:14:59.210Z,22.9
2018-02-18T10:15:59.066Z,22.9
2018-02-18T10:16:58.976Z,22.9
2018-02-18T10:17:58.925Z,23
2018-02-18T10:18:58.786Z,23
2018-02-18T10:19:58.751Z,23.1
2018-02-18T10:20:58.980Z,23.1
2018-02-18T10:21:58.700Z,23.1
2018-02-18T10:22:58.534Z,23.1
2018-02-18T10:23:58.488Z,23.1
2018-02-18T10:24:58.515Z,23.1
2018-02-18T10:25:58.337Z,23.2
2018-02-18T10:26:58.357Z,23.1
2018-02-18T10:27:58.174Z,23.1
2018-02-18T10:28:58.111Z,23.1
2018-02-18T10:29:58.094Z,23.1
2018-02-18T10:30:58.035Z,23.1
2018-02-18T10:31:57.926Z,23.1
2018-02-18T10:32:58.018Z,23.1
2018-02-18T10:33:57.756Z,23.1
2018-02-18T10:34:57.749Z,23.1
2018-02-18T10:35:57.651Z,23.1
2018-02-18T10:36:57.685Z,23.1
2018-02-18T10:37:57.530Z,23
2018-02-18T10:38:57.440Z,23.1
2018-02-18T10:39:57.412Z,23.1
2018-02-18T10:40:57.357Z,23.1
2018-02-18T10:41:57.233Z,23.1
2018-02-18T10:42:57.200Z,23.1
2018-02-18T10:43:57.118Z,23.1
2018-02-18T10:44:57.028Z,23.1
2018-02-18T10:45:57.256Z,23.1
2018-02-18T10:46:56.894Z,23.1
2018-02-18T10:47:56.900Z,23.2
2018-02-18T10:48:56.725Z,23.2
2018-02-18T10:49:56.807Z,23.2
2018-02-18T10:50:56.728Z,23.2
2018-02-18T10:51:56.582Z,23.1
2018-02-18T10:52:56.449Z,23.2
2018-02-18T10:53:56.447Z,23.2
2018-02-18T10:54:56.332Z,23.2
2018-02-18T10:55:56.281Z,23.1
2018-02-18T10:56:56.207Z,23.1
2018-02-18T10:57:56.192Z,23.1
2018-02-18T10:58:56.039Z,23.1
2018-02-18T10:59:56.076Z,23.1
2018-02-18T11:00:55.901Z,23.1
2018-02-18T11:01:55.898Z,23
2018-02-18T11:02:55.794Z,23.1
2018-02-18T11:03:55.794Z,23.1
2018-02-18T11:04:55.984Z,23.1
2018-02-18T11:05:55.591Z,23.1
2018-02-18T11:06:55.525Z,23.1
2018-02-18T11:07:55.807Z,23.1
2018-02-18T11:08:55.677Z,23.1
2018-02-18T11:09:55.292Z,23.2
2018-02-18T11:10:55.246Z,23.1
2018-02-18T11:11:55.511Z,23.1
2018-02-18T11:12:55.286Z,23.2
2018-02-18T11:13:55.041Z,23.2
2018-02-18T11:14:54.978Z,23.2
2018-02-18T11:15:54.909Z,23.1
2018-02-18T11:16:54.817Z,23.1
2018-02-18T11:17:54.811Z,23.2
2018-02-18T11:18:54.706Z,23.2
2018-02-18T11:19:54.604Z,23.2
2018-02-18T11:20:54.599Z,23.1
2018-02-18T11:21:54.475Z,23.1
2018-02-18T11:22:54.586Z,23.1
2018-02-18T11:23:54.654Z,23.1
2018-02-18T11:24:54.294Z,23.1
2018-02-18T11:25:54.234Z,23.1
2018-02-18T11:26:54.281Z,23.1
2018-02-18T11:27:54.348Z,23.1
2018-02-18T11:28:54.059Z,23.1
2018-02-18T11:29:54.077Z,23
2018-02-18T11:30:53.992Z,23
2018-02-18T11:31:53.870Z,23.1
2018-02-18T11:32:53.788Z,23.1
2018-02-18T11:33:53.747Z,23.1
2018-02-18T11:34:53.911Z,23.1
2018-02-18T11:35:53.564Z,23.1
2018-02-18T11:36:53.494Z,23.1
2018-02-18T11:37:53.447Z,23.2
2018-02-18T11:38:53.361Z,23.2
2018-02-18T11:39:53.272Z,23.1
2018-02-18T11:40:53.324Z,23.1
2018-02-18T11:41:53.169Z,23.2
2018-02-18T11:42:53.359Z,23.2
2018-02-18T11:43:53.062Z,23.1
2018-02-18T11:44:52.939Z,23.1
2018-02-18T11:45:52.879Z,23.1
2018-02-18T11:46:52.829Z,23.1
2018-02-18T11:47:52.700Z,23.1
2018-02-18T11:48:52.660Z,23.1
2018-02-18T11:49:52.614Z,23
2018-02-18T11:50:52.526Z,23
2018-02-18T11:51:52.507Z,23.1
2018-02-18T11:52:52.359Z,23.1
2018-02-18T11:53:52.355Z,23
2018-02-18T11:54:52.285Z,22.9
2018-02-18T11:55:52.196Z,23
2018-02-18T11:56:52.224Z,23
2018-02-18T11:57:52.058Z,23.1
2018-02-18T11:58:52.304Z,23
2018-02-18T11:59:51.949Z,23
2018-02-18T12:00:52.137Z,23.1
2018-02-18T12:01:51.777Z,23.1
2018-02-18T12:02:51.678Z,23.1
2018-02-18T12:03:51.839Z,23.2
2018-02-18T12:04:51.542Z,23.2
2018-02-18T12:05:51.540Z,23.3
2018-02-18T12:06:51.451Z,23.3
2018-02-18T12:07:51.370Z,23.3
2018-02-18T12:08:51.314Z,23.3
2018-02-18T12:09:51.208Z,23.3
2018-02-18T12:10:51.196Z,23.3
2018-02-18T12:11:51.106Z,23.3
2018-02-18T12:12:51.067Z,23.3
2018-02-18T12:13:51.068Z,23.2
2018-02-18T12:14:50.881Z,23.2
2018-02-18T12:15:50.868Z,23.2
2018-02-18T12:16:50.758Z,23.2
2018-02-18T12:17:50.685Z,23.1
2018-02-18T12:18:50.732Z,23.1
2018-02-18T12:19:50.665Z,23.1
2018-02-18T12:20:50.557Z,23.1
2018-02-18T12:21:50.447Z,23.1
2018-02-18T12:22:50.457Z,23
2018-02-18T12:23:50.572Z,22.9
2018-02-18T12:24:50.211Z,23
2018-02-18T12:25:50.479Z,23.1
2018-02-18T12:26:50.073Z,23.1
2018-02-18T12:27:50.040Z,23
2018-02-18T12:28:49.908Z,23
2018-02-18T12:29:49.925Z,23
2018-02-18T12:30:49.824Z,23.1
2018-02-18T12:31:49.980Z,23.1
2018-02-18T12:32:49.808Z,23.1
2018-02-18T12:33:49.563Z,23.1
2018-02-18T12:34:49.522Z,23.2
2018-02-18T12:35:49.459Z,23.3
2018-02-18T12:36:49.355Z,23.3
2018-02-18T12:37:49.400Z,23.2
2018-02-18T12:38:49.545Z,23.2
2018-02-18T12:39:49.294Z,23.2
2018-02-18T12:40:49.118Z,23.3
2018-02-18T12:41:49.011Z,23.2
2018-02-18T12:42:49.006Z,23.1
2018-02-18T12:43:48.905Z,23.1
2018-02-18T12:44:48.849Z,23.1
2018-02-18T12:45:48.736Z,23.1
2018-02-18T12:46:48.705Z,23
2018-02-18T12:47:48.777Z,22.9
2018-02-18T12:48:48.572Z,22.9
2018-02-18T12:49:48.492Z,22.9
2018-02-18T12:50:48.434Z,22.9
2018-02-18T12:51:48.358Z,22.9
2018-02-18T12:52:48.443Z,22.8
2018-02-18T12:53:48.189Z,22.8
2018-02-18T12:54:48.147Z,22.8
2018-02-18T12:55:48.089Z,22.9
2018-02-18T12:56:48.014Z,22.9
2018-02-18T12:57:47.986Z,22.9
2018-02-18T12:58:47.852Z,22.9
2018-02-18T12:59:47.805Z,23
2018-02-18T13:00:47.742Z,23.1
2018-02-18T13:01:47.666Z,23
2018-02-18T13:02:47.618Z,22.9
2018-02-18T13:03:47.501Z,23
2018-02-18T13:04:47.501Z,23
2018-02-18T13:05:47.455Z,23.1
2018-02-18T13:06:47.325Z,22.9
2018-02-18T13:07:47.273Z,22.9
2018-02-18T13:08:47.188Z,22.9
2018-02-18T13:09:47.138Z,23
2018-02-18T13:10:47.057Z,23
2018-02-18T13:11:46.982Z,22.9
2018-02-18T13:12:47.027Z,22.8
2018-02-18T13:13:46.881Z,22.9
2018-02-18T13:14:46.748Z,22.9
2018-02-18T13:15:46.740Z,22.9
2018-02-18T13:16:46.608Z,22.8
2018-02-18T13:17:46.576Z,22.7
2018-02-18T13:18:46.611Z,22.7
2018-02-18T13:19:46.541Z,22.8
2018-02-18T13:20:46.335Z,22.9
2018-02-18T13:21:46.329Z,22.9